createdAt,value
2023-05-04T00:01:23.624Z,12.29
2023-05-04T00:03:50.266Z,12.13
2023-05-04T00:06:16.948Z,12.14
2023-05-04T00:08:43.417Z,12.18
2023-05-04T00:11:09.907Z,12.13
2023-05-04T00:13:36.449Z,12.20
2023-05-04T00:16:03.055Z,12.14
2023-05-04T00:18:29.615Z,12.05
2023-05-04T00:20:56.180Z,12.03
2023-05-04T00:23:22.751Z,12.01
2023-05-04T00:25:49.258Z,11.86
2023-05-04T00:28:15.840Z,11.97
2023-05-04T00:30:42.318Z,12.01
2023-05-04T00:33:09.191Z,12.03
2023-05-04T00:35:36.024Z,12.00
2023-05-04T00:38:03.990Z,11.89
2023-05-04T00:40:30.687Z,11.84
2023-05-04T00:42:57.233Z,11.86
2023-05-04T00:45:23.727Z,11.88
2023-05-04T00:47:50.366Z,11.90
2023-05-04T00:50:16.954Z,11.88
2023-05-04T00:52:45.080Z,11.84
2023-05-04T00:55:11.648Z,11.74
2023-05-04T00:57:39.279Z,11.64
2023-05-04T01:00:06.970Z,11.48
2023-05-04T01:02:33.836Z,11.53
2023-05-04T01:05:01.998Z,11.36
2023-05-04T01:07:53.178Z,11.33
2023-05-04T01:10:35.176Z,11.28
2023-05-04T01:13:08.269Z,11.28
2023-05-04T01:15:36.137Z,11.30
2023-05-04T01:18:02.865Z,11.36
2023-05-04T01:20:29.568Z,11.37
2023-05-04T01:22:56.297Z,11.29
2023-05-04T01:25:27.402Z,11.28
2023-05-04T01:28:02.379Z,11.24
2023-05-04T01:30:39.243Z,11.27
2023-05-04T01:33:06.945Z,11.37
2023-05-04T01:35:34.313Z,11.38
2023-05-04T01:38:01.276Z,11.37
2023-05-04T01:40:28.085Z,11.30
2023-05-04T01:42:54.630Z,11.23
2023-05-04T01:45:21.257Z,11.12
2023-05-04T01:47:48.907Z,11.14
2023-05-04T01:50:15.434Z,11.10
2023-05-04T01:52:41.961Z,11.17
2023-05-04T01:55:08.905Z,11.23
2023-05-04T01:57:35.487Z,11.22
2023-05-04T02:00:02.205Z,11.17
2023-05-04T02:02:28.861Z,11.20
2023-05-04T02:04:55.421Z,11.19
2023-05-04T02:07:21.902Z,11.17
2023-05-04T02:09:48.394Z,11.12
2023-05-04T02:12:14.877Z,11.16
2023-05-04T02:14:41.432Z,11.08
2023-05-04T02:17:08.199Z,11.10
2023-05-04T02:19:34.730Z,11.13
2023-05-04T02:22:01.269Z,11.22
2023-05-04T02:24:27.743Z,11.28
2023-05-04T02:26:54.276Z,11.28
2023-05-04T02:29:20.794Z,11.30
2023-05-04T02:31:47.326Z,11.31
2023-05-04T02:34:13.836Z,11.30
2023-05-04T02:36:40.625Z,11.35
2023-05-04T02:39:07.140Z,11.37
2023-05-04T02:41:33.691Z,11.37
2023-05-04T02:44:00.211Z,11.38
2023-05-04T02:46:26.739Z,11.38
2023-05-04T02:48:53.230Z,11.40
2023-05-04T02:51:19.767Z,11.34
2023-05-04T02:53:46.264Z,11.25
2023-05-04T02:56:12.776Z,11.28
2023-05-04T02:58:39.306Z,11.17
2023-05-04T03:01:05.869Z,11.14
2023-05-04T03:03:32.397Z,11.07
2023-05-04T03:05:59.006Z,11.06
2023-05-04T03:08:25.519Z,11.11
2023-05-04T03:10:52.007Z,11.12
2023-05-04T03:13:18.606Z,11.09
2023-05-04T03:15:45.156Z,11.10
2023-05-04T03:18:11.726Z,11.16
2023-05-04T03:20:38.232Z,11.20
2023-05-04T03:23:04.808Z,11.21
2023-05-04T03:25:31.356Z,11.24
2023-05-04T03:27:57.922Z,11.23
2023-05-04T03:30:24.419Z,11.26
2023-05-04T03:32:50.999Z,11.28
2023-05-04T03:35:23.294Z,11.33
2023-05-04T03:37:51.333Z,11.29
2023-05-04T03:40:18.007Z,11.25
2023-05-04T03:42:44.491Z,11.30
2023-05-04T03:45:11.237Z,11.30
2023-05-04T03:47:37.811Z,11.32
2023-05-04T03:50:04.775Z,11.28
2023-05-04T03:52:31.439Z,11.27
2023-05-04T03:54:57.975Z,11.34
2023-05-04T03:57:24.501Z,11.32
2023-05-04T03:59:51.043Z,11.23
2023-05-04T04:02:17.617Z,11.13
2023-05-04T04:04:44.248Z,11.09
2023-05-04T04:07:10.908Z,11.10
2023-05-04T04:09:37.384Z,11.03
2023-05-04T04:12:03.988Z,11.14
2023-05-04T04:14:30.534Z,11.22
2023-05-04T04:16:57.077Z,11.22
2023-05-04T04:19:23.613Z,11.21
2023-05-04T04:21:50.113Z,11.12
2023-05-04T04:24:16.655Z,11.08
2023-05-04T04:26:43.132Z,11.10
2023-05-04T04:29:09.648Z,11.09
2023-05-04T04:31:36.206Z,11.10
2023-05-04T04:34:02.770Z,11.09
2023-05-04T04:36:29.287Z,11.04
2023-05-04T04:38:55.773Z,11.13
2023-05-04T04:41:22.320Z,11.12
2023-05-04T04:43:48.851Z,11.20
2023-05-04T04:46:15.393Z,11.19
2023-05-04T04:48:41.934Z,11.28
2023-05-04T04:51:11.758Z,11.26
2023-05-04T04:53:38.851Z,11.30
2023-05-04T04:56:05.916Z,11.27
2023-05-04T04:58:32.376Z,11.36
2023-05-04T05:00:59.295Z,11.46
2023-05-04T05:03:25.831Z,11.57
2023-05-04T05:05:52.285Z,11.68
2023-05-04T05:08:18.785Z,11.79
2023-05-04T05:10:45.269Z,11.85
2023-05-04T05:13:11.948Z,11.88
2023-05-04T05:15:38.582Z,11.98
2023-05-04T05:18:05.206Z,11.99
2023-05-04T05:20:31.754Z,12.13
2023-05-04T05:22:58.220Z,12.21
2023-05-04T05:25:24.793Z,12.27
2023-05-04T05:27:51.345Z,12.33
2023-05-04T05:30:18.004Z,12.23
2023-05-04T05:32:45.226Z,12.20
2023-05-04T05:35:12.983Z,12.19
2023-05-04T05:37:39.515Z,12.23
2023-05-04T05:40:07.153Z,12.23
2023-05-04T05:42:33.974Z,12.19
2023-05-04T05:45:00.588Z,12.21
2023-05-04T05:47:27.380Z,12.11
2023-05-04T05:49:54.025Z,12.01
2023-05-04T05:52:20.568Z,11.94
2023-05-04T05:54:47.052Z,11.90
2023-05-04T05:57:13.544Z,11.76
2023-05-04T05:59:40.061Z,11.75
2023-05-04T06:02:06.564Z,11.85
2023-05-04T06:04:33.150Z,11.91
2023-05-04T06:06:59.740Z,11.87
2023-05-04T06:09:26.250Z,11.95
2023-05-04T06:11:55.296Z,11.90
2023-05-04T06:14:22.136Z,11.96
2023-05-04T06:16:48.688Z,11.89
2023-05-04T06:19:15.233Z,11.86
2023-05-04T06:21:41.726Z,11.87
2023-05-04T06:24:08.292Z,11.90
2023-05-04T06:26:34.793Z,11.84
2023-05-04T06:29:01.263Z,11.80
2023-05-04T06:31:27.792Z,11.81
2023-05-04T06:33:54.318Z,11.86
2023-05-04T06:36:20.788Z,11.77
2023-05-04T06:38:47.309Z,11.80
2023-05-04T06:41:13.837Z,11.78
2023-05-04T06:43:40.457Z,11.87
2023-05-04T06:46:07.066Z,11.87
2023-05-04T06:48:33.659Z,12.00
2023-05-04T06:51:01.560Z,12.02
2023-05-04T06:53:29.448Z,12.14
2023-05-04T06:55:55.973Z,12.25
2023-05-04T06:58:22.879Z,12.41
2023-05-04T07:00:49.418Z,12.32
2023-05-04T07:03:15.976Z,12.48
2023-05-04T07:05:42.470Z,12.60
2023-05-04T07:08:09.026Z,12.66
2023-05-04T07:10:35.799Z,12.53
2023-05-04T07:13:02.309Z,12.62
2023-05-04T07:15:29.285Z,12.69
2023-05-04T07:17:55.934Z,12.79
2023-05-04T07:20:24.406Z,12.95
2023-05-04T07:22:56.447Z,12.92
2023-05-04T07:25:27.006Z,12.95
2023-05-04T07:27:54.120Z,12.98
2023-05-04T07:30:21.245Z,12.99
2023-05-04T07:32:47.881Z,12.90
2023-05-04T07:35:14.409Z,12.93
2023-05-04T07:37:40.968Z,13.12
2023-05-04T07:40:08.148Z,13.13
2023-05-04T07:42:34.854Z,13.25
2023-05-04T07:45:01.358Z,13.25
2023-05-04T07:47:28.001Z,13.18
2023-05-04T07:49:54.659Z,13.32
2023-05-04T07:52:21.301Z,13.47
2023-05-04T07:54:47.829Z,13.66
2023-05-04T07:57:14.338Z,13.49
2023-05-04T07:59:41.136Z,13.69
2023-05-04T08:02:07.646Z,13.88
2023-05-04T08:04:34.171Z,13.88
2023-05-04T08:07:00.657Z,13.94
2023-05-04T08:09:27.205Z,13.74
2023-05-04T08:11:53.760Z,13.73
2023-05-04T08:14:20.298Z,13.91
2023-05-04T08:16:46.826Z,14.00
2023-05-04T08:19:13.488Z,13.98
2023-05-04T08:21:40.015Z,14.17
2023-05-04T08:24:07.116Z,14.42
2023-05-04T08:26:33.534Z,14.48
2023-05-04T08:29:09.365Z,14.78
2023-05-04T08:31:36.698Z,15.06
2023-05-04T08:34:04.132Z,15.22
2023-05-04T08:36:30.702Z,15.28
2023-05-04T08:38:57.449Z,15.37
2023-05-04T08:41:23.951Z,15.33
2023-05-04T08:43:51.207Z,15.26
2023-05-04T08:46:17.990Z,15.05
2023-05-04T08:48:44.665Z,15.00
2023-05-04T08:51:11.456Z,15.03
2023-05-04T08:53:43.028Z,15.03
2023-05-04T08:56:13.063Z,14.84
2023-05-04T08:58:50.880Z,14.73
2023-05-04T09:01:19.207Z,14.70
2023-05-04T09:03:47.578Z,14.60
2023-05-04T09:06:15.308Z,14.64
2023-05-04T09:08:42.104Z,14.45
2023-05-04T09:11:08.758Z,14.31
2023-05-04T09:13:35.307Z,14.15
2023-05-04T09:16:02.020Z,14.13
2023-05-04T09:18:42.637Z,14.15
2023-05-04T09:21:11.519Z,14.08
2023-05-04T09:23:49.392Z,14.03
2023-05-04T09:26:26.723Z,13.97
2023-05-04T09:28:53.222Z,13.62
2023-05-04T09:31:19.740Z,13.61
2023-05-04T09:33:46.508Z,13.55
2023-05-04T09:36:19.060Z,13.56
2023-05-04T09:38:45.559Z,13.66
2023-05-04T09:41:12.205Z,13.37
2023-05-04T09:43:43.135Z,13.25
2023-05-04T09:46:19.466Z,13.22
2023-05-04T09:48:55.709Z,13.28
2023-05-04T09:51:26.068Z,13.30
2023-05-04T09:53:52.755Z,13.38
2023-05-04T09:56:40.240Z,13.51
2023-05-04T09:59:07.907Z,13.50
2023-05-04T10:01:34.673Z,13.50
2023-05-04T10:04:01.711Z,13.47
2023-05-04T10:06:29.386Z,13.57
2023-05-04T10:08:56.289Z,13.56
2023-05-04T10:11:23.785Z,13.61
2023-05-04T10:13:50.441Z,13.69
2023-05-04T10:16:38.395Z,13.66
2023-05-04T10:19:32.154Z,13.58
2023-05-04T10:22:01.649Z,13.76
2023-05-04T10:24:37.108Z,13.94
2023-05-04T10:27:51.602Z,14.17
2023-05-04T10:30:18.738Z,14.20
2023-05-04T10:32:45.387Z,14.24
2023-05-04T10:35:12.040Z,14.28
2023-05-04T10:37:38.854Z,14.50
2023-05-04T10:40:07.732Z,14.70
2023-05-04T10:42:44.401Z,14.50
2023-05-04T10:45:11.125Z,14.23
2023-05-04T10:47:37.850Z,14.24
2023-05-04T10:50:07.261Z,14.23
2023-05-04T10:52:46.593Z,14.36
2023-05-04T10:55:14.013Z,14.45
2023-05-04T10:57:51.336Z,14.12
2023-05-04T11:00:18.647Z,14.30
2023-05-04T11:02:47.593Z,14.34
2023-05-04T11:05:15.862Z,14.47
2023-05-04T11:07:42.436Z,14.53
2023-05-04T11:10:21.063Z,14.64
2023-05-04T11:12:47.590Z,14.97
2023-05-04T11:15:14.268Z,15.24
2023-05-04T11:17:48.243Z,15.51
2023-05-04T11:20:27.494Z,15.86
2023-05-04T11:22:55.068Z,16.12
2023-05-04T11:25:28.783Z,16.18
2023-05-04T11:27:55.745Z,15.86
2023-05-04T11:30:30.573Z,15.76
2023-05-04T11:32:57.160Z,15.75
2023-05-04T11:35:23.664Z,15.78
2023-05-04T11:37:50.183Z,15.78
2023-05-04T11:40:20.150Z,15.76
2023-05-04T11:42:46.993Z,15.69
2023-05-04T11:45:16.866Z,15.44
2023-05-04T11:47:44.535Z,15.17
2023-05-04T11:50:13.377Z,15.06
2023-05-04T11:52:40.939Z,14.84
2023-05-04T11:55:12.398Z,14.63
2023-05-04T11:57:39.613Z,14.56
2023-05-04T12:00:08.679Z,14.55
2023-05-04T12:02:35.793Z,14.47
2023-05-04T12:05:02.740Z,14.32
2023-05-04T12:07:29.314Z,14.11
2023-05-04T12:09:55.819Z,14.11
2023-05-04T12:12:22.446Z,14.16
2023-05-04T12:14:53.619Z,14.12
2023-05-04T12:17:20.898Z,14.28
2023-05-04T12:19:49.934Z,14.22
2023-05-04T12:22:16.933Z,14.21
2023-05-04T12:24:43.292Z,14.48
2023-05-04T12:27:14.095Z,14.65
2023-05-04T12:29:40.714Z,14.71
2023-05-04T12:32:07.520Z,14.68
2023-05-04T12:34:34.115Z,14.84
2023-05-04T12:37:00.659Z,14.90
2023-05-04T12:39:27.172Z,15.23
2023-05-04T12:41:53.647Z,15.24
2023-05-04T12:44:20.156Z,15.24
2023-05-04T12:46:46.701Z,15.39
2023-05-04T12:49:14.560Z,15.35
2023-05-04T12:51:41.186Z,15.51
2023-05-04T12:54:07.726Z,15.35
2023-05-04T12:56:34.437Z,15.25
2023-05-04T12:59:00.937Z,15.32
2023-05-04T13:01:27.517Z,15.10
2023-05-04T13:03:54.174Z,14.87
2023-05-04T13:06:20.746Z,14.95
2023-05-04T13:08:47.336Z,14.70
2023-05-04T13:11:14.367Z,14.77
2023-05-04T13:13:40.786Z,14.51
2023-05-04T13:16:07.405Z,14.46
2023-05-04T13:18:33.928Z,14.68
2023-05-04T13:21:00.421Z,14.78
2023-05-04T13:23:26.990Z,14.90
2023-05-04T13:25:53.597Z,15.07
2023-05-04T13:28:20.130Z,15.24
2023-05-04T13:30:46.650Z,15.07
2023-05-04T13:33:21.380Z,14.76
2023-05-04T13:35:55.108Z,14.82
2023-05-04T13:38:21.633Z,14.82
2023-05-04T13:40:48.160Z,14.96
2023-05-04T13:43:14.656Z,14.82
2023-05-04T13:45:41.177Z,14.87
2023-05-04T13:48:07.747Z,14.89
2023-05-04T13:50:34.279Z,14.90
2023-05-04T13:53:00.754Z,14.98
2023-05-04T13:55:27.319Z,14.84
2023-05-04T13:57:53.822Z,14.68
2023-05-04T14:00:20.709Z,14.74
2023-05-04T14:02:47.348Z,14.78
2023-05-04T14:05:13.906Z,14.75
2023-05-04T14:07:40.350Z,14.86
2023-05-04T14:10:07.323Z,14.88
2023-05-04T14:12:33.947Z,14.75
2023-05-04T14:15:00.514Z,14.68
2023-05-04T14:17:27.202Z,14.66
2023-05-04T14:19:53.682Z,14.61
2023-05-04T14:22:20.215Z,14.58
2023-05-04T14:24:46.736Z,14.61
2023-05-04T14:27:13.265Z,14.86
2023-05-04T14:29:39.807Z,14.87
2023-05-04T14:32:06.460Z,14.86
2023-05-04T14:34:33.033Z,14.90
2023-05-04T14:36:59.655Z,15.09
2023-05-04T14:39:26.216Z,15.25
2023-05-04T14:41:52.813Z,15.34
2023-05-04T14:44:20.189Z,15.20
2023-05-04T14:46:46.728Z,15.32
2023-05-04T14:49:21.397Z,15.39
2023-05-04T14:51:55.186Z,15.62
2023-05-04T14:54:21.714Z,15.60
2023-05-04T14:56:48.241Z,15.64
2023-05-04T14:59:14.755Z,15.70
2023-05-04T15:01:41.330Z,15.67
2023-05-04T15:04:07.825Z,15.69
2023-05-04T15:06:34.352Z,15.79
2023-05-04T15:09:00.847Z,15.88
2023-05-04T15:11:27.377Z,15.98
2023-05-04T15:13:53.873Z,15.93
2023-05-04T15:16:20.442Z,15.71
2023-05-04T15:18:47.016Z,15.65
2023-05-04T15:21:13.475Z,15.86
2023-05-04T15:23:39.955Z,15.97
2023-05-04T15:26:06.421Z,15.83
2023-05-04T15:28:32.942Z,15.94
2023-05-04T15:30:59.400Z,15.94
2023-05-04T15:33:25.872Z,15.88
2023-05-04T15:35:52.395Z,16.06
2023-05-04T15:38:18.901Z,15.98
2023-05-04T15:40:45.435Z,15.63
2023-05-04T15:43:11.964Z,15.53
2023-05-04T15:45:38.495Z,15.59
2023-05-04T15:48:05.287Z,15.58
2023-05-04T15:50:33.082Z,15.47
2023-05-04T15:52:59.811Z,15.46
2023-05-04T15:55:26.762Z,15.43
2023-05-04T15:57:53.445Z,15.39
2023-05-04T16:00:20.313Z,15.34
2023-05-04T16:02:46.902Z,15.33
2023-05-04T16:05:13.496Z,15.31
2023-05-04T16:07:39.983Z,15.25
2023-05-04T16:10:07.197Z,15.23
2023-05-04T16:12:33.918Z,15.07
2023-05-04T16:15:00.414Z,15.06
2023-05-04T16:17:26.885Z,15.07
2023-05-04T16:22:32.940Z,15.09
2023-05-04T16:25:00.250Z,15.12
2023-05-04T16:27:26.956Z,15.24
2023-05-04T16:29:53.552Z,15.36
2023-05-04T16:32:20.139Z,15.04
2023-05-04T16:34:46.824Z,15.15
2023-05-04T16:37:13.909Z,15.03
2023-05-04T16:39:40.395Z,15.02
2023-05-04T16:42:06.913Z,14.83
2023-05-04T16:44:33.676Z,14.71
2023-05-04T16:47:00.526Z,14.73
2023-05-04T16:49:27.299Z,14.74
2023-05-04T16:51:53.930Z,14.64
2023-05-04T16:54:20.638Z,14.56
2023-05-04T16:56:47.340Z,14.48
2023-05-04T16:59:13.885Z,14.35
2023-05-04T17:01:41.284Z,14.25
2023-05-04T17:04:07.785Z,14.12
2023-05-04T17:06:34.792Z,14.05
2023-05-04T17:09:01.751Z,13.94
2023-05-04T17:11:28.278Z,13.87
2023-05-04T17:13:54.917Z,13.90
2023-05-04T17:16:21.536Z,13.72
2023-05-04T17:18:48.101Z,13.69
2023-05-04T17:21:14.691Z,13.65
2023-05-04T17:23:41.349Z,13.64
2023-05-04T17:26:07.863Z,13.56
2023-05-04T17:28:34.400Z,13.51
2023-05-04T17:31:00.916Z,13.44
2023-05-04T17:33:27.450Z,13.34
2023-05-04T17:35:54.043Z,13.23
2023-05-04T17:38:20.525Z,13.13
2023-05-04T17:40:47.070Z,13.04
2023-05-04T17:43:13.647Z,12.99
2023-05-04T17:45:40.181Z,12.95
2023-05-04T17:48:06.797Z,12.84
2023-05-04T17:50:33.336Z,12.74
2023-05-04T17:52:59.827Z,12.67
2023-05-04T17:55:26.417Z,12.63
2023-05-04T17:57:53.880Z,12.64
2023-05-04T18:00:21.033Z,12.62
2023-05-04T18:02:47.764Z,12.51
2023-05-04T18:05:14.377Z,12.48
2023-05-04T18:07:40.861Z,12.42
2023-05-04T18:10:07.874Z,12.35
2023-05-04T18:12:35.585Z,12.31
2023-05-04T18:15:03.747Z,12.21
2023-05-04T18:17:30.308Z,12.18
2023-05-04T18:19:56.831Z,12.09
2023-05-04T18:22:23.351Z,12.07
2023-05-04T18:24:50.002Z,12.05
2023-05-04T18:27:16.580Z,11.99
2023-05-04T18:29:43.205Z,11.95
2023-05-04T18:32:09.910Z,11.93
2023-05-04T18:34:36.838Z,11.89
2023-05-04T18:37:03.498Z,11.92
2023-05-04T18:39:30.372Z,11.89
2023-05-04T18:41:57.061Z,11.87
2023-05-04T18:44:23.837Z,11.85
2023-05-04T18:46:50.629Z,11.80
2023-05-04T18:49:17.351Z,11.80
2023-05-04T18:51:44.093Z,11.81
2023-05-04T18:54:11.901Z,11.81
2023-05-04T18:56:39.047Z,11.82
2023-05-04T18:59:07.976Z,11.82
2023-05-04T19:01:36.031Z,11.76
2023-05-04T19:04:05.569Z,11.76
2023-05-04T19:06:32.820Z,11.77
2023-05-04T19:08:59.807Z,11.75
2023-05-04T19:11:26.620Z,11.77
2023-05-04T19:13:53.355Z,11.71
2023-05-04T19:16:20.411Z,11.67
2023-05-04T19:18:47.572Z,11.68
2023-05-04T19:21:15.187Z,11.66
2023-05-04T19:23:41.947Z,11.66
2023-05-04T19:26:08.742Z,11.64
2023-05-04T19:28:36.423Z,11.64
2023-05-04T19:31:03.160Z,11.63
2023-05-04T19:33:40.289Z,11.58
2023-05-04T19:36:11.886Z,11.51
2023-05-04T19:38:38.663Z,11.48
2023-05-04T19:41:05.511Z,11.44
2023-05-04T19:43:32.229Z,11.42
2023-05-04T19:45:59.058Z,11.36
2023-05-04T19:48:25.801Z,11.30
2023-05-04T19:50:52.602Z,11.30
2023-05-04T19:53:19.321Z,11.21
2023-05-04T19:55:46.189Z,11.10
2023-05-04T19:58:12.903Z,11.09
2023-05-04T20:00:39.702Z,11.06
2023-05-04T20:03:06.663Z,10.99
2023-05-04T20:05:33.511Z,10.96
2023-05-04T20:08:02.142Z,10.91
2023-05-04T20:10:31.666Z,10.82
2023-05-04T20:12:58.449Z,10.77
2023-05-04T20:15:25.331Z,10.67
2023-05-04T20:17:52.174Z,10.59
2023-05-04T20:20:19.070Z,10.56
2023-05-04T20:22:46.889Z,10.45
2023-05-04T20:25:13.620Z,10.46
2023-05-04T20:27:40.398Z,10.44
2023-05-04T20:30:07.860Z,10.40
2023-05-04T20:32:34.729Z,10.28
2023-05-04T20:35:01.328Z,10.21
2023-05-04T20:37:27.847Z,10.19
2023-05-04T20:39:54.362Z,10.18
2023-05-04T20:42:20.906Z,10.12
2023-05-04T20:44:47.432Z,10.01
2023-05-04T20:47:13.961Z,10.01
2023-05-04T20:49:40.467Z,9.99
2023-05-04T20:52:07.044Z,9.97
2023-05-04T20:54:33.564Z,9.83
2023-05-04T20:57:00.097Z,9.66
2023-05-04T20:59:26.611Z,9.53
2023-05-04T21:01:53.157Z,9.38
2023-05-04T21:04:19.698Z,9.38
2023-05-04T21:06:48.262Z,9.40
2023-05-04T21:09:15.012Z,9.37
2023-05-04T21:11:41.480Z,9.38
2023-05-04T21:14:08.020Z,9.36
2023-05-04T21:16:34.539Z,9.28
2023-05-04T21:19:01.005Z,9.14
2023-05-04T21:21:27.513Z,9.13
2023-05-04T21:23:55.080Z,9.19
2023-05-04T21:26:21.604Z,9.21
2023-05-04T21:28:48.102Z,9.23
2023-05-04T21:31:14.601Z,9.24
2023-05-04T21:33:41.181Z,9.22
2023-05-04T21:36:12.510Z,9.24
2023-05-04T21:38:39.068Z,9.21
2023-05-04T21:41:15.516Z,9.23
2023-05-04T21:43:43.031Z,9.18
2023-05-04T21:46:09.548Z,9.13
2023-05-04T21:48:36.301Z,9.13
2023-05-04T21:51:02.960Z,9.14
2023-05-04T21:53:29.579Z,9.23
2023-05-04T21:55:56.094Z,9.29
2023-05-04T21:58:22.614Z,9.31
2023-05-04T22:00:49.110Z,9.32
2023-05-04T22:03:15.597Z,9.39
2023-05-04T22:05:42.107Z,9.44
2023-05-04T22:08:08.594Z,9.46
2023-05-04T22:10:35.122Z,9.49
